createdAt,value
2019-03-17T00:04:01.440Z,8.78
2019-03-17T00:09:09.319Z,8.96
2019-03-17T00:14:16.313Z,8.81
2019-03-17T00:19:23.584Z,8.86
2019-03-17T00:24:30.497Z,8.91
2019-03-17T00:29:39.127Z,8.88
2019-03-17T00:34:46.049Z,8.92
2019-03-17T00:39:53.070Z,8.88
2019-03-17T00:45:00.774Z,8.98
2019-03-17T00:50:09.082Z,8.93
2019-03-17T00:55:17.074Z,8.80
2019-03-17T01:00:24.069Z,8.80
2019-03-17T01:05:31.502Z,8.73
2019-03-17T01:10:38.562Z,8.80
2019-03-17T01:15:45.478Z,8.57
2019-03-17T01:20:53.457Z,8.28
2019-03-17T01:26:00.373Z,8.33
2019-03-17T01:31:07.562Z,7.93
2019-03-17T01:36:15.603Z,7.89
2019-03-17T01:41:22.504Z,7.94
2019-03-17T01:46:29.426Z,7.85
2019-03-17T01:51:36.413Z,8.09
2019-03-17T01:56:43.313Z,8.07
2019-03-17T02:01:50.380Z,7.93
2019-03-17T02:06:57.232Z,7.63
2019-03-17T02:12:04.141Z,7.33
2019-03-17T02:17:11.223Z,7.29
2019-03-17T02:22:22.236Z,7.15
2019-03-17T02:27:28.897Z,6.88
2019-03-17T02:32:35.868Z,6.65
2019-03-17T02:37:42.863Z,6.46
2019-03-17T02:42:49.770Z,6.10
2019-03-17T02:47:57.147Z,6.10
2019-03-17T02:53:04.046Z,6.08
2019-03-17T02:58:11.051Z,6.14
2019-03-17T03:03:18.156Z,6.03
2019-03-17T03:08:25.103Z,6.03
2019-03-17T03:13:32.149Z,6.07
2019-03-17T03:18:39.073Z,6.00
2019-03-17T03:23:45.977Z,6.07
2019-03-17T03:28:52.882Z,6.12
2019-03-17T03:33:59.925Z,6.04
2019-03-17T03:39:07.660Z,6.00
2019-03-17T03:44:14.575Z,5.84
2019-03-17T03:49:21.544Z,5.96
2019-03-17T03:54:28.742Z,5.96
2019-03-17T03:59:35.726Z,5.93
2019-03-17T04:04:42.634Z,5.94
2019-03-17T04:09:49.635Z,5.84
2019-03-17T04:14:57.125Z,5.83
2019-03-17T04:20:04.872Z,5.87
2019-03-17T04:25:16.136Z,5.75
2019-03-17T04:30:23.126Z,5.75
2019-03-17T04:35:30.413Z,5.63
2019-03-17T04:40:37.337Z,5.54
2019-03-17T04:45:44.305Z,5.38
2019-03-17T04:50:51.238Z,5.40
2019-03-17T04:55:58.141Z,5.41
2019-03-17T05:01:05.186Z,5.46
2019-03-17T05:06:12.202Z,5.39
2019-03-17T05:11:19.372Z,5.47
2019-03-17T05:16:26.286Z,5.53
2019-03-17T05:21:33.188Z,5.58
2019-03-17T05:26:40.276Z,5.69
2019-03-17T05:31:47.518Z,5.64
2019-03-17T05:37:05.409Z,5.59
2019-03-17T05:42:03.091Z,5.62
2019-03-17T05:47:10.428Z,5.65
2019-03-17T05:52:17.421Z,5.86
2019-03-17T05:57:24.349Z,5.79
2019-03-17T06:02:31.269Z,5.88
2019-03-17T06:07:38.252Z,5.98
2019-03-17T06:12:45.261Z,6.13
2019-03-17T06:17:52.188Z,6.20
2019-03-17T06:22:59.156Z,6.47
2019-03-17T06:28:06.127Z,6.74
2019-03-17T06:33:13.082Z,6.94
2019-03-17T06:38:20.109Z,7.06
2019-03-17T06:43:27.032Z,7.14
2019-03-17T06:48:34.039Z,7.22
2019-03-17T06:53:41.109Z,7.19
2019-03-17T06:58:48.040Z,7.43
2019-03-17T07:03:54.946Z,7.62
2019-03-17T07:09:01.893Z,7.73
2019-03-17T07:14:09.993Z,7.93
2019-03-17T07:19:16.904Z,8.25
2019-03-17T07:24:23.843Z,8.61
2019-03-17T07:29:30.774Z,8.93
2019-03-17T07:34:37.784Z,9.04
2019-03-17T07:39:44.692Z,9.11
2019-03-17T07:44:51.808Z,9.24
2019-03-17T07:49:58.721Z,9.26
2019-03-17T07:55:06.011Z,9.44
2019-03-17T08:00:13.114Z,9.68
2019-03-17T08:05:20.119Z,10.06
2019-03-17T08:10:27.047Z,10.28
2019-03-17T08:15:33.984Z,10.48
2019-03-17T08:20:40.981Z,10.85
2019-03-17T08:25:47.988Z,11.14
2019-03-17T08:30:54.947Z,11.37
2019-03-17T08:36:01.900Z,11.58
2019-03-17T08:41:08.890Z,11.24
2019-03-17T08:46:16.022Z,11.25
2019-03-17T08:51:23.151Z,11.50
2019-03-17T08:56:30.129Z,11.51
2019-03-17T09:01:37.148Z,11.78
2019-03-17T09:06:44.100Z,12.12
2019-03-17T09:11:51.022Z,12.33
2019-03-17T09:16:57.987Z,11.95
2019-03-17T09:22:05.257Z,11.94
2019-03-17T09:27:12.196Z,12.17
2019-03-17T09:32:19.322Z,12.44
2019-03-17T09:37:26.255Z,12.46
2019-03-17T09:42:33.370Z,12.49
2019-03-17T09:47:41.372Z,12.40
2019-03-17T09:52:48.679Z,12.44
2019-03-17T09:57:55.702Z,12.38
2019-03-17T10:03:02.665Z,12.61
2019-03-17T10:08:09.586Z,12.58
2019-03-17T10:13:16.607Z,12.22
2019-03-17T10:18:23.536Z,12.12
2019-03-17T10:23:30.473Z,12.12
2019-03-17T10:28:37.413Z,12.15
2019-03-17T10:33:45.753Z,12.18
2019-03-17T10:38:53.821Z,12.17
2019-03-17T10:44:00.756Z,11.99
2019-03-17T10:49:07.718Z,12.09
2019-03-17T10:54:15.170Z,12.28
2019-03-17T10:59:22.120Z,12.54
2019-03-17T11:04:29.025Z,12.72
2019-03-17T11:09:35.949Z,12.54
2019-03-17T11:14:42.905Z,12.34
2019-03-17T11:19:49.876Z,12.23
2019-03-17T11:24:57.938Z,12.31
2019-03-17T11:30:05.917Z,12.78
2019-03-17T11:35:12.979Z,13.04
2019-03-17T11:40:21.054Z,13.09
2019-03-17T11:45:28.086Z,13.36
2019-03-17T11:50:36.073Z,13.02
2019-03-17T11:55:43.031Z,12.99
2019-03-17T12:00:50.023Z,12.75
2019-03-17T12:05:56.962Z,12.57
2019-03-17T12:11:03.975Z,12.44
2019-03-17T12:16:10.919Z,12.34
2019-03-17T12:21:18.058Z,12.30
2019-03-17T12:26:25.002Z,12.19
2019-03-17T12:31:31.943Z,12.13
2019-03-17T12:36:40.099Z,11.95
2019-03-17T12:41:47.103Z,11.93
2019-03-17T12:46:54.111Z,12.05
2019-03-17T12:52:01.063Z,11.98
2019-03-17T12:57:07.991Z,11.95
2019-03-17T13:02:14.998Z,12.10
2019-03-17T13:07:25.056Z,12.30
2019-03-17T13:12:31.963Z,12.54
2019-03-17T13:17:38.974Z,12.27
2019-03-17T13:22:45.967Z,11.76
2019-03-17T13:27:52.878Z,10.25
2019-03-17T13:33:12.938Z,9.85
2019-03-17T13:38:19.911Z,9.36
2019-03-17T13:43:26.822Z,9.26
2019-03-17T13:48:33.803Z,9.36
2019-03-17T13:53:40.907Z,9.27
2019-03-17T13:58:48.033Z,9.01
2019-03-17T14:03:55.151Z,8.59
2019-03-17T14:09:02.029Z,7.94
2019-03-17T14:14:10.119Z,7.12
2019-03-17T14:19:17.025Z,6.88
2019-03-17T14:24:23.963Z,6.93
2019-03-17T14:29:33.008Z,6.91
2019-03-17T14:34:39.598Z,6.93
2019-03-17T14:39:46.521Z,7.11
2019-03-17T14:44:53.605Z,7.05
2019-03-17T14:50:00.522Z,7.12
2019-03-17T14:55:07.714Z,7.10
2019-03-17T15:00:16.903Z,7.17
2019-03-17T15:05:25.432Z,7.25
2019-03-17T15:10:32.670Z,7.40
2019-03-17T15:15:39.976Z,7.51
2019-03-17T15:20:46.917Z,7.65
2019-03-17T15:25:54.428Z,7.65
2019-03-17T15:31:11.751Z,7.73
2019-03-17T15:36:10.008Z,7.82
2019-03-17T15:41:18.788Z,7.81
2019-03-17T15:46:26.036Z,7.76
2019-03-17T15:51:32.953Z,7.80
2019-03-17T15:56:40.137Z,7.83
2019-03-17T16:01:47.169Z,7.80
2019-03-17T16:06:54.058Z,7.87
2019-03-17T16:12:00.971Z,7.89
2019-03-17T16:17:07.975Z,7.58
2019-03-17T16:22:15.132Z,7.51
2019-03-17T16:27:22.070Z,7.37
2019-03-17T16:32:29.073Z,7.44
2019-03-17T16:37:36.062Z,7.40
2019-03-17T16:42:42.992Z,7.38
2019-03-17T16:47:50.024Z,7.41
2019-03-17T16:52:56.936Z,7.83
2019-03-17T16:58:03.998Z,7.38
2019-03-17T17:03:10.897Z,7.63
2019-03-17T17:08:17.999Z,8.78
2019-03-17T17:13:24.929Z,8.42
2019-03-17T17:18:31.976Z,7.45
2019-03-17T17:23:38.929Z,7.10
2019-03-17T17:28:45.877Z,6.93
2019-03-17T17:33:52.948Z,6.90
2019-03-17T17:38:59.894Z,6.88
2019-03-17T17:44:06.815Z,6.79
2019-03-17T17:49:13.765Z,6.79
2019-03-17T17:54:20.695Z,6.71
2019-03-17T17:59:27.627Z,6.74
2019-03-17T18:04:34.558Z,6.82
2019-03-17T18:09:41.479Z,6.75
2019-03-17T18:14:48.605Z,6.79
2019-03-17T18:19:55.499Z,6.71
2019-03-17T18:25:02.481Z,6.73
2019-03-17T18:30:11.201Z,6.62
2019-03-17T18:35:18.432Z,6.63
2019-03-17T18:40:25.339Z,6.56
2019-03-17T18:45:32.397Z,6.49
2019-03-17T18:50:39.474Z,6.48
2019-03-17T18:55:46.361Z,6.58
2019-03-17T19:00:53.353Z,6.42
2019-03-17T19:06:00.345Z,6.14
2019-03-17T19:11:08.325Z,6.28
2019-03-17T19:16:15.238Z,6.09
2019-03-17T19:21:22.152Z,5.98
2019-03-17T19:26:29.072Z,5.82
2019-03-17T19:31:36.462Z,5.65
2019-03-17T19:36:43.414Z,5.71
2019-03-17T19:41:50.506Z,5.68
2019-03-17T19:46:57.499Z,5.73
2019-03-17T19:52:04.592Z,5.66
2019-03-17T19:57:11.508Z,5.62
2019-03-17T20:02:18.442Z,5.67
2019-03-17T20:07:25.377Z,5.64
2019-03-17T20:12:32.453Z,5.69
2019-03-17T20:17:39.356Z,5.86
2019-03-17T20:22:46.301Z,5.78
2019-03-17T20:27:53.217Z,5.75
2019-03-17T20:33:00.257Z,5.73
2019-03-17T20:38:07.244Z,5.69
2019-03-17T20:43:23.951Z,5.66
2019-03-17T20:48:23.312Z,5.61
2019-03-17T20:53:30.301Z,5.38
2019-03-17T20:58:37.309Z,5.20
2019-03-17T21:03:44.237Z,5.05
2019-03-17T21:08:51.160Z,4.93
2019-03-17T21:13:58.070Z,5.05
2019-03-17T21:19:05.065Z,5.11
2019-03-17T21:24:11.989Z,5.00
2019-03-17T21:29:18.981Z,4.94
2019-03-17T21:34:25.939Z,4.88
2019-03-17T21:39:32.892Z,4.83
2019-03-17T21:44:39.810Z,4.94
2019-03-17T21:49:46.711Z,4.85
2019-03-17T21:54:53.634Z,4.88
2019-03-17T22:00:00.546Z,4.79
2019-03-17T22:05:07.905Z,4.75
2019-03-17T22:10:16.278Z,4.62
2019-03-17T22:15:23.193Z,4.62
2019-03-17T22:20:30.230Z,4.82
2019-03-17T22:25:38.105Z,4.76
2019-03-17T22:30:45.013Z,4.73
2019-03-17T22:35:52.185Z,4.76
2019-03-17T22:40:59.109Z,4.86
2019-03-17T22:46:06.053Z,4.82
2019-03-17T22:51:13.075Z,4.70
2019-03-17T22:56:19.973Z,4.80
2019-03-17T23:01:27.123Z,4.86
2019-03-17T23:06:34.081Z,4.81
2019-03-17T23:11:41.005Z,4.76
2019-03-17T23:16:49.525Z,4.62
2019-03-17T23:21:56.441Z,4.54
2019-03-17T23:27:03.521Z,4.57
2019-03-17T23:32:10.426Z,4.51
2019-03-17T23:37:17.330Z,4.52
2019-03-17T23:42:24.885Z,4.32
2019-03-17T23:47:32.018Z,4.29
2019-03-17T23:52:39.012Z,4.29
2019-03-17T23:57:46.010Z,4.16
